sensor_id;sensor_type;location;lat;lon;timestamp;P1;durP1;ratioP1;P2;durP2;ratioP2
13698;SDS011;6921;53.642;9.956;2023-02-13T00:00:53;26.80;;;15.00;;
13698;SDS011;6921;53.642;9.956;2023-02-13T00:02:56;24.63;;;16.13;;
13698;SDS011;6921;53.642;9.956;2023-02-13T00:04:59;27.43;;;15.17;;
13698;SDS011;6921;53.642;9.956;2023-02-13T00:07:03;26.37;;;15.50;;
13698;SDS011;6921;53.642;9.956;2023-02-13T00:09:06;26.53;;;15.07;;
13698;SDS011;6921;53.642;9.956;2023-02-13T00:11:11;29.80;;;17.03;;
13698;SDS011;6921;53.642;9.956;2023-02-13T00:13:14;27.07;;;15.77;;
13698;SDS011;6921;53.642;9.956;2023-02-13T00:15:19;29.53;;;16.63;;
13698;SDS011;6921;53.642;9.956;2023-02-13T00:17:22;27.73;;;16.27;;
13698;SDS011;6921;53.642;9.956;2023-02-13T00:19:28;28.83;;;17.60;;
13698;SDS011;6921;53.642;9.956;2023-02-13T00:21:31;27.77;;;16.70;;
13698;SDS011;6921;53.642;9.956;2023-02-13T00:23:34;30.43;;;18.03;;
13698;SDS011;6921;53.642;9.956;2023-02-13T00:25:38;30.23;;;17.97;;
13698;SDS011;6921;53.642;9.956;2023-02-13T00:27:42;26.77;;;16.17;;
13698;SDS011;6921;53.642;9.956;2023-02-13T00:29:45;33.13;;;19.43;;
13698;SDS011;6921;53.642;9.956;2023-02-13T00:31:50;30.83;;;17.07;;
13698;SDS011;6921;53.642;9.956;2023-02-13T00:33:53;34.17;;;19.20;;
13698;SDS011;6921;53.642;9.956;2023-02-13T00:36:01;31.30;;;17.67;;
13698;SDS011;6921;53.642;9.956;2023-02-13T00:38:05;30.43;;;18.00;;
13698;SDS011;6921;53.642;9.956;2023-02-13T00:40:08;38.13;;;19.47;;
13698;SDS011;6921;53.642;9.956;2023-02-13T00:42:12;30.70;;;19.37;;
13698;SDS011;6921;53.642;9.956;2023-02-13T00:44:15;35.70;;;19.57;;
13698;SDS011;6921;53.642;9.956;2023-02-13T00:46:18;32.40;;;18.10;;
13698;SDS011;6921;53.642;9.956;2023-02-13T00:48:23;33.60;;;18.57;;
13698;SDS011;6921;53.642;9.956;2023-02-13T00:50:26;30.63;;;17.90;;
13698;SDS011;6921;53.642;9.956;2023-02-13T00:52:29;28.50;;;16.23;;
13698;SDS011;6921;53.642;9.956;2023-02-13T00:54:32;33.83;;;18.40;;
13698;SDS011;6921;53.642;9.956;2023-02-13T00:56:36;33.53;;;19.00;;
13698;SDS011;6921;53.642;9.956;2023-02-13T00:58:39;29.77;;;17.73;;
13698;SDS011;6921;53.642;9.956;2023-02-13T01:00:43;31.43;;;19.87;;
13698;SDS011;6921;53.642;9.956;2023-02-13T01:02:47;28.17;;;17.83;;
13698;SDS011;6921;53.642;9.956;2023-02-13T01:04:52;32.43;;;18.27;;
13698;SDS011;6921;53.642;9.956;2023-02-13T01:06:55;32.63;;;18.83;;
13698;SDS011;6921;53.642;9.956;2023-02-13T01:08:58;32.20;;;19.27;;
13698;SDS011;6921;53.642;9.956;2023-02-13T01:11:01;35.37;;;20.03;;
13698;SDS011;6921;53.642;9.956;2023-02-13T01:13:05;34.30;;;19.83;;
13698;SDS011;6921;53.642;9.956;2023-02-13T01:15:09;37.83;;;20.03;;
13698;SDS011;6921;53.642;9.956;2023-02-13T01:17:12;36.33;;;19.80;;
13698;SDS011;6921;53.642;9.956;2023-02-13T01:19:15;32.20;;;18.83;;
13698;SDS011;6921;53.642;9.956;2023-02-13T01:21:20;39.37;;;20.83;;
13698;SDS011;6921;53.642;9.956;2023-02-13T01:23:24;31.83;;;17.43;;
13698;SDS011;6921;53.642;9.956;2023-02-13T01:25:27;31.83;;;17.50;;
13698;SDS011;6921;53.642;9.956;2023-02-13T01:27:31;32.47;;;17.70;;
13698;SDS011;6921;53.642;9.956;2023-02-13T01:29:35;32.37;;;18.47;;
13698;SDS011;6921;53.642;9.956;2023-02-13T01:31:38;36.53;;;19.67;;
13698;SDS011;6921;53.642;9.956;2023-02-13T01:33:41;34.07;;;19.00;;
13698;SDS011;6921;53.642;9.956;2023-02-13T01:35:44;35.33;;;20.60;;
13698;SDS011;6921;53.642;9.956;2023-02-13T01:37:49;33.07;;;19.07;;
13698;SDS011;6921;53.642;9.956;2023-02-13T01:39:52;34.70;;;19.97;;
13698;SDS011;6921;53.642;9.956;2023-02-13T01:41:56;32.33;;;17.60;;
13698;SDS011;6921;53.642;9.956;2023-02-13T01:43:59;43.27;;;22.07;;
13698;SDS011;6921;53.642;9.956;2023-02-13T01:46:03;39.53;;;21.07;;
13698;SDS011;6921;53.642;9.956;2023-02-13T01:48:07;37.37;;;20.50;;
13698;SDS011;6921;53.642;9.956;2023-02-13T01:50:16;36.13;;;19.73;;
13698;SDS011;6921;53.642;9.956;2023-02-13T01:52:22;35.10;;;19.00;;
13698;SDS011;6921;53.642;9.956;2023-02-13T01:54:27;35.07;;;18.20;;
13698;SDS011;6921;53.642;9.956;2023-02-13T01:56:35;38.97;;;20.70;;
13698;SDS011;6921;53.642;9.956;2023-02-13T01:58:42;37.83;;;20.10;;
13698;SDS011;6921;53.642;9.956;2023-02-13T02:00:47;40.20;;;21.13;;
13698;SDS011;6921;53.642;9.956;2023-02-13T02:02:51;34.03;;;19.07;;
13698;SDS011;6921;53.642;9.956;2023-02-13T02:04:59;35.77;;;20.27;;
13698;SDS011;6921;53.642;9.956;2023-02-13T02:07:05;34.17;;;19.80;;
13698;SDS011;6921;53.642;9.956;2023-02-13T02:09:11;36.47;;;19.40;;
13698;SDS011;6921;53.642;9.956;2023-02-13T02:11:21;35.03;;;19.20;;
13698;SDS011;6921;53.642;9.956;2023-02-13T02:13:31;40.97;;;20.63;;
13698;SDS011;6921;53.642;9.956;2023-02-13T02:15:35;36.33;;;20.43;;
13698;SDS011;6921;53.642;9.956;2023-02-13T02:17:38;36.03;;;20.57;;
13698;SDS011;6921;53.642;9.956;2023-02-13T02:19:43;34.97;;;19.87;;
13698;SDS011;6921;53.642;9.956;2023-02-13T02:24:49;37.03;;;19.57;;
13698;SDS011;6921;53.642;9.956;2023-02-13T02:30:02;40.23;;;21.07;;
13698;SDS011;6921;53.642;9.956;2023-02-13T02:34:53;37.90;;;19.60;;
13698;SDS011;6921;53.642;9.956;2023-02-13T02:37:04;37.17;;;20.33;;
13698;SDS011;6921;53.642;9.956;2023-02-13T02:39:20;34.47;;;19.50;;
13698;SDS011;6921;53.642;9.956;2023-02-13T02:41:37;35.30;;;19.57;;
13698;SDS011;6921;53.642;9.956;2023-02-13T02:43:53;31.03;;;19.10;;
13698;SDS011;6921;53.642;9.956;2023-02-13T02:46:04;31.87;;;18.43;;
13698;SDS011;6921;53.642;9.956;2023-02-13T02:48:15;35.87;;;19.93;;
13698;SDS011;6921;53.642;9.956;2023-02-13T02:50:45;32.03;;;17.97;;
13698;SDS011;6921;53.642;9.956;2023-02-13T02:53:01;31.30;;;18.00;;
13698;SDS011;6921;53.642;9.956;2023-02-13T02:55:17;32.10;;;19.60;;
13698;SDS011;6921;53.642;9.956;2023-02-13T02:57:30;32.13;;;19.70;;
13698;SDS011;6921;53.642;9.956;2023-02-13T02:59:48;30.90;;;16.77;;
13698;SDS011;6921;53.642;9.956;2023-02-13T03:02:26;35.33;;;20.03;;
13698;SDS011;6921;53.642;9.956;2023-02-13T03:04:47;31.37;;;19.10;;
13698;SDS011;6921;53.642;9.956;2023-02-13T03:07:10;31.87;;;18.97;;
13698;SDS011;6921;53.642;9.956;2023-02-13T03:09:18;34.17;;;18.60;;
13698;SDS011;6921;53.642;9.956;2023-02-13T03:11:42;32.10;;;18.07;;
13698;SDS011;6921;53.642;9.956;2023-02-13T03:14:08;31.43;;;18.53;;
13698;SDS011;6921;53.642;9.956;2023-02-13T03:16:14;31.20;;;18.37;;
13698;SDS011;6921;53.642;9.956;2023-02-13T03:18:40;28.53;;;17.67;;
13698;SDS011;6921;53.642;9.956;2023-02-13T03:21:09;29.50;;;17.23;;
13698;SDS011;6921;53.642;9.956;2023-02-13T03:23:37;29.27;;;17.27;;
13698;SDS011;6921;53.642;9.956;2023-02-13T03:28:21;27.40;;;17.07;;
13698;SDS011;6921;53.642;9.956;2023-02-13T03:30:50;30.77;;;18.17;;
13698;SDS011;6921;53.642;9.956;2023-02-13T03:33:04;29.10;;;17.27;;
13698;SDS011;6921;53.642;9.956;2023-02-13T03:35:15;25.33;;;16.90;;
13698;SDS011;6921;53.642;9.956;2023-02-13T03:37:46;26.93;;;16.30;;
13698;SDS011;6921;53.642;9.956;2023-02-13T03:39:58;30.17;;;17.83;;
13698;SDS011;6921;53.642;9.956;2023-02-13T03:42:04;28.07;;;16.73;;
13698;SDS011;6921;53.642;9.956;2023-02-13T03:44:10;26.40;;;15.83;;
13698;SDS011;6921;53.642;9.956;2023-02-13T03:46:17;26.37;;;17.20;;
13698;SDS011;6921;53.642;9.956;2023-02-13T03:48:21;26.63;;;15.80;;
13698;SDS011;6921;53.642;9.956;2023-02-13T03:50:41;27.10;;;16.10;;
13698;SDS011;6921;53.642;9.956;2023-02-13T03:52:48;27.70;;;16.87;;
13698;SDS011;6921;53.642;9.956;2023-02-13T03:54:55;26.03;;;17.13;;
13698;SDS011;6921;53.642;9.956;2023-02-13T03:57:18;25.47;;;16.47;;
13698;SDS011;6921;53.642;9.956;2023-02-13T03:59:42;25.70;;;16.50;;
13698;SDS011;6921;53.642;9.956;2023-02-13T04:01:47;25.93;;;16.47;;
13698;SDS011;6921;53.642;9.956;2023-02-13T04:03:55;28.83;;;16.57;;
13698;SDS011;6921;53.642;9.956;2023-02-13T04:06:03;26.57;;;16.83;;
13698;SDS011;6921;53.642;9.956;2023-02-13T04:08:12;26.03;;;15.43;;
13698;SDS011;6921;53.642;9.956;2023-02-13T04:12:18;25.43;;;15.13;;
13698;SDS011;6921;53.642;9.956;2023-02-13T04:14:24;25.53;;;15.97;;
13698;SDS011;6921;53.642;9.956;2023-02-13T04:16:31;24.57;;;14.87;;
13698;SDS011;6921;53.642;9.956;2023-02-13T04:18:38;22.77;;;15.10;;
13698;SDS011;6921;53.642;9.956;2023-02-13T04:20:42;26.73;;;16.40;;
13698;SDS011;6921;53.642;9.956;2023-02-13T04:22:46;25.17;;;14.97;;
13698;SDS011;6921;53.642;9.956;2023-02-13T04:24:51;25.90;;;15.33;;
13698;SDS011;6921;53.642;9.956;2023-02-13T04:26:54;25.17;;;14.87;;
13698;SDS011;6921;53.642;9.956;2023-02-13T04:28:57;24.30;;;15.43;;
13698;SDS011;6921;53.642;9.956;2023-02-13T04:31:01;24.00;;;14.60;;
13698;SDS011;6921;53.642;9.956;2023-02-13T04:33:04;23.20;;;13.90;;
13698;SDS011;6921;53.642;9.956;2023-02-13T04:35:08;20.00;;;12.43;;
13698;SDS011;6921;53.642;9.956;2023-02-13T04:37:13;23.47;;;15.10;;
13698;SDS011;6921;53.642;9.956;2023-02-13T04:39:16;22.13;;;14.57;;
13698;SDS011;6921;53.642;9.956;2023-02-13T04:41:20;21.00;;;13.10;;
13698;SDS011;6921;53.642;9.956;2023-02-13T04:43:24;23.57;;;14.33;;
13698;SDS011;6921;53.642;9.956;2023-02-13T04:45:27;22.17;;;14.00;;
13698;SDS011;6921;53.642;9.956;2023-02-13T04:47:30;21.20;;;14.27;;
13698;SDS011;6921;53.642;9.956;2023-02-13T04:49:37;24.57;;;14.53;;
13698;SDS011;6921;53.642;9.956;2023-02-13T04:51:40;22.30;;;13.27;;
13698;SDS011;6921;53.642;9.956;2023-02-13T04:53:43;21.70;;;13.40;;
13698;SDS011;6921;53.642;9.956;2023-02-13T04:55:46;22.70;;;14.77;;
13698;SDS011;6921;53.642;9.956;2023-02-13T04:57:52;21.53;;;14.20;;
13698;SDS011;6921;53.642;9.956;2023-02-13T04:59:55;19.80;;;13.73;;
13698;SDS011;6921;53.642;9.956;2023-02-13T05:01:58;23.10;;;14.50;;
13698;SDS011;6921;53.642;9.956;2023-02-13T05:04:01;23.07;;;13.73;;
13698;SDS011;6921;53.642;9.956;2023-02-13T05:06:05;21.03;;;13.33;;
13698;SDS011;6921;53.642;9.956;2023-02-13T05:08:08;25.57;;;15.63;;
13698;SDS011;6921;53.642;9.956;2023-02-13T05:10:12;22.07;;;13.80;;
13698;SDS011;6921;53.642;9.956;2023-02-13T05:12:16;22.57;;;14.77;;
13698;SDS011;6921;53.642;9.956;2023-02-13T05:14:20;22.87;;;13.87;;
13698;SDS011;6921;53.642;9.956;2023-02-13T05:16:23;23.63;;;15.00;;
13698;SDS011;6921;53.642;9.956;2023-02-13T05:18:27;22.80;;;14.30;;
13698;SDS011;6921;53.642;9.956;2023-02-13T05:20:30;22.00;;;14.40;;
13698;SDS011;6921;53.642;9.956;2023-02-13T05:22:33;23.97;;;14.70;;
13698;SDS011;6921;53.642;9.956;2023-02-13T05:24:54;23.70;;;14.40;;
13698;SDS011;6921;53.642;9.956;2023-02-13T05:26:57;24.53;;;15.17;;
13698;SDS011;6921;53.642;9.956;2023-02-13T05:29:01;22.57;;;14.30;;
13698;SDS011;6921;53.642;9.956;2023-02-13T05:31:24;20.43;;;13.07;;
13698;SDS011;6921;53.642;9.956;2023-02-13T05:33:27;21.07;;;13.13;;
13698;SDS011;6921;53.642;9.956;2023-02-13T05:35:30;24.03;;;14.53;;
13698;SDS011;6921;53.642;9.956;2023-02-13T05:37:35;25.03;;;14.63;;
13698;SDS011;6921;53.642;9.956;2023-02-13T05:39:38;22.87;;;13.97;;
13698;SDS011;6921;53.642;9.956;2023-02-13T05:41:41;21.60;;;12.90;;
13698;SDS011;6921;53.642;9.956;2023-02-13T05:43:45;18.60;;;12.63;;
13698;SDS011;6921;53.642;9.956;2023-02-13T05:45:48;22.20;;;13.40;;
13698;SDS011;6921;53.642;9.956;2023-02-13T05:47:54;22.23;;;13.70;;
13698;SDS011;6921;53.642;9.956;2023-02-13T05:49:57;22.90;;;14.33;;
13698;SDS011;6921;53.642;9.956;2023-02-13T05:52:00;20.47;;;13.90;;
13698;SDS011;6921;53.642;9.956;2023-02-13T05:54:03;22.73;;;14.17;;
13698;SDS011;6921;53.642;9.956;2023-02-13T05:56:06;21.67;;;14.30;;
13698;SDS011;6921;53.642;9.956;2023-02-13T05:58:10;22.63;;;14.30;;
13698;SDS011;6921;53.642;9.956;2023-02-13T06:00:14;25.10;;;15.17;;
13698;SDS011;6921;53.642;9.956;2023-02-13T06:02:17;25.73;;;15.53;;
13698;SDS011;6921;53.642;9.956;2023-02-13T06:04:22;26.13;;;15.53;;
13698;SDS011;6921;53.642;9.956;2023-02-13T06:06:25;21.00;;;13.93;;
13698;SDS011;6921;53.642;9.956;2023-02-13T06:08:29;21.60;;;14.07;;
13698;SDS011;6921;53.642;9.956;2023-02-13T06:10:32;23.00;;;14.37;;
13698;SDS011;6921;53.642;9.956;2023-02-13T06:12:35;23.30;;;13.73;;
13698;SDS011;6921;53.642;9.956;2023-02-13T06:14:39;19.93;;;13.33;;
13698;SDS011;6921;53.642;9.956;2023-02-13T06:16:42;20.83;;;13.13;;
13698;SDS011;6921;53.642;9.956;2023-02-13T06:18:45;18.70;;;12.80;;
13698;SDS011;6921;53.642;9.956;2023-02-13T06:20:50;24.80;;;14.37;;
13698;SDS011;6921;53.642;9.956;2023-02-13T06:22:53;19.37;;;12.97;;
13698;SDS011;6921;53.642;9.956;2023-02-13T06:24:56;17.50;;;12.60;;
13698;SDS011;6921;53.642;9.956;2023-02-13T06:26:59;23.20;;;14.73;;
13698;SDS011;6921;53.642;9.956;2023-02-13T06:29:02;20.70;;;13.37;;
13698;SDS011;6921;53.642;9.956;2023-02-13T06:31:07;21.67;;;13.67;;
13698;SDS011;6921;53.642;9.956;2023-02-13T06:33:10;20.10;;;12.20;;
13698;SDS011;6921;53.642;9.956;2023-02-13T06:35:13;21.63;;;13.20;;
13698;SDS011;6921;53.642;9.956;2023-02-13T06:37:18;21.50;;;14.63;;
13698;SDS011;6921;53.642;9.956;2023-02-13T06:39:21;24.20;;;14.93;;
13698;SDS011;6921;53.642;9.956;2023-02-13T06:41:25;21.70;;;13.40;;
13698;SDS011;6921;53.642;9.956;2023-02-13T06:43:28;21.03;;;13.47;;
13698;SDS011;6921;53.642;9.956;2023-02-13T06:45:31;22.23;;;13.67;;
13698;SDS011;6921;53.642;9.956;2023-02-13T06:47:35;25.13;;;14.70;;
13698;SDS011;6921;53.642;9.956;2023-02-13T06:49:38;23.77;;;14.50;;
13698;SDS011;6921;53.642;9.956;2023-02-13T06:51:41;25.57;;;17.03;;
13698;SDS011;6921;53.642;9.956;2023-02-13T06:53:46;23.67;;;15.83;;
13698;SDS011;6921;53.642;9.956;2023-02-13T06:55:49;26.07;;;15.37;;
13698;SDS011;6921;53.642;9.956;2023-02-13T06:57:53;22.57;;;14.00;;
13698;SDS011;6921;53.642;9.956;2023-02-13T06:59:56;24.80;;;15.77;;
13698;SDS011;6921;53.642;9.956;2023-02-13T07:02:00;23.63;;;15.57;;
13698;SDS011;6921;53.642;9.956;2023-02-13T07:04:03;25.57;;;16.43;;
13698;SDS011;6921;53.642;9.956;2023-02-13T07:06:06;22.70;;;14.27;;
13698;SDS011;6921;53.642;9.956;2023-02-13T07:08:10;26.17;;;16.67;;
13698;SDS011;6921;53.642;9.956;2023-02-13T07:10:15;24.57;;;15.83;;
13698;SDS011;6921;53.642;9.956;2023-02-13T07:12:18;23.50;;;14.67;;
13698;SDS011;6921;53.642;9.956;2023-02-13T07:14:22;24.67;;;15.60;;
13698;SDS011;6921;53.642;9.956;2023-02-13T07:16:25;24.53;;;15.90;;
13698;SDS011;6921;53.642;9.956;2023-02-13T07:18:28;25.93;;;15.73;;
13698;SDS011;6921;53.642;9.956;2023-02-13T07:20:32;21.37;;;14.17;;
13698;SDS011;6921;53.642;9.956;2023-02-13T07:22:35;25.33;;;15.90;;
13698;SDS011;6921;53.642;9.956;2023-02-13T07:24:38;25.40;;;15.10;;
13698;SDS011;6921;53.642;9.956;2023-02-13T07:26:43;22.40;;;14.83;;
13698;SDS011;6921;53.642;9.956;2023-02-13T07:28:46;29.47;;;17.47;;
13698;SDS011;6921;53.642;9.956;2023-02-13T07:31:02;28.00;;;16.87;;
13698;SDS011;6921;53.642;9.956;2023-02-13T07:33:08;25.17;;;15.60;;
13698;SDS011;6921;53.642;9.956;2023-02-13T07:35:13;24.90;;;15.00;;
13698;SDS011;6921;53.642;9.956;2023-02-13T07:37:17;25.57;;;15.97;;
13698;SDS011;6921;53.642;9.956;2023-02-13T07:39:20;24.47;;;14.07;;
13698;SDS011;6921;53.642;9.956;2023-02-13T07:41:23;24.10;;;16.10;;
13698;SDS011;6921;53.642;9.956;2023-02-13T07:43:28;26.63;;;16.97;;
13698;SDS011;6921;53.642;9.956;2023-02-13T07:45:32;27.23;;;17.27;;
13698;SDS011;6921;53.642;9.956;2023-02-13T07:47:35;27.17;;;15.33;;
13698;SDS011;6921;53.642;9.956;2023-02-13T07:49:39;25.97;;;16.03;;
13698;SDS011;6921;53.642;9.956;2023-02-13T07:51:42;22.77;;;15.00;;
13698;SDS011;6921;53.642;9.956;2023-02-13T07:53:45;24.47;;;15.67;;
13698;SDS011;6921;53.642;9.956;2023-02-13T07:55:48;22.57;;;14.90;;
13698;SDS011;6921;53.642;9.956;2023-02-13T07:57:52;21.87;;;14.30;;
13698;SDS011;6921;53.642;9.956;2023-02-13T07:59:56;22.60;;;14.17;;
13698;SDS011;6921;53.642;9.956;2023-02-13T08:02:01;27.63;;;16.30;;
13698;SDS011;6921;53.642;9.956;2023-02-13T08:04:04;27.23;;;16.47;;
13698;SDS011;6921;53.642;9.956;2023-02-13T08:06:10;24.03;;;15.93;;
13698;SDS011;6921;53.642;9.956;2023-02-13T08:08:14;24.37;;;14.47;;
13698;SDS011;6921;53.642;9.956;2023-02-13T08:10:17;24.87;;;15.80;;
13698;SDS011;6921;53.642;9.956;2023-02-13T08:12:38;24.97;;;15.60;;
13698;SDS011;6921;53.642;9.956;2023-02-13T08:14:41;24.23;;;14.50;;
13698;SDS011;6921;53.642;9.956;2023-02-13T08:16:47;23.90;;;15.00;;
13698;SDS011;6921;53.642;9.956;2023-02-13T08:18:51;26.87;;;15.80;;
13698;SDS011;6921;53.642;9.956;2023-02-13T08:20:54;23.23;;;14.87;;
13698;SDS011;6921;53.642;9.956;2023-02-13T08:23:01;25.23;;;16.27;;
13698;SDS011;6921;53.642;9.956;2023-02-13T08:25:04;25.57;;;16.27;;
13698;SDS011;6921;53.642;9.956;2023-02-13T08:27:10;20.87;;;14.13;;
13698;SDS011;6921;53.642;9.956;2023-02-13T08:29:13;23.33;;;15.40;;
13698;SDS011;6921;53.642;9.956;2023-02-13T08:31:17;23.30;;;14.80;;
13698;SDS011;6921;53.642;9.956;2023-02-13T08:33:22;23.73;;;13.20;;
13698;SDS011;6921;53.642;9.956;2023-02-13T08:35:25;22.50;;;15.13;;
13698;SDS011;6921;53.642;9.956;2023-02-13T08:37:30;20.37;;;13.83;;
13698;SDS011;6921;53.642;9.956;2023-02-13T08:39:33;24.07;;;14.97;;
13698;SDS011;6921;53.642;9.956;2023-02-13T08:41:36;23.70;;;15.70;;
13698;SDS011;6921;53.642;9.956;2023-02-13T08:43:39;24.83;;;14.83;;
13698;SDS011;6921;53.642;9.956;2023-02-13T08:45:43;23.17;;;14.23;;
13698;SDS011;6921;53.642;9.956;2023-02-13T08:47:46;21.97;;;14.00;;
13698;SDS011;6921;53.642;9.956;2023-02-13T08:49:51;25.30;;;16.13;;
13698;SDS011;6921;53.642;9.956;2023-02-13T08:51:54;22.50;;;14.03;;
13698;SDS011;6921;53.642;9.956;2023-02-13T08:53:57;19.33;;;13.80;;
13698;SDS011;6921;53.642;9.956;2023-02-13T08:56:00;26.93;;;16.30;;
13698;SDS011;6921;53.642;9.956;2023-02-13T08:58:04;23.57;;;14.77;;
13698;SDS011;6921;53.642;9.956;2023-02-13T09:00:07;22.13;;;14.43;;
13698;SDS011;6921;53.642;9.956;2023-02-13T09:02:11;23.90;;;14.87;;
13698;SDS011;6921;53.642;9.956;2023-02-13T09:04:14;23.60;;;15.40;;
13698;SDS011;6921;53.642;9.956;2023-02-13T09:06:19;25.40;;;15.60;;
13698;SDS011;6921;53.642;9.956;2023-02-13T09:08:23;23.83;;;15.10;;
13698;SDS011;6921;53.642;9.956;2023-02-13T09:10:26;21.70;;;14.53;;
13698;SDS011;6921;53.642;9.956;2023-02-13T09:12:29;22.53;;;14.53;;
13698;SDS011;6921;53.642;9.956;2023-02-13T09:14:33;19.97;;;13.83;;
13698;SDS011;6921;53.642;9.956;2023-02-13T09:16:36;22.97;;;14.60;;
13698;SDS011;6921;53.642;9.956;2023-02-13T09:18:40;22.27;;;13.67;;
13698;SDS011;6921;53.642;9.956;2023-02-13T09:20:43;20.33;;;14.03;;
13698;SDS011;6921;53.642;9.956;2023-02-13T09:22:48;24.30;;;15.43;;
13698;SDS011;6921;53.642;9.956;2023-02-13T09:24:51;25.57;;;14.80;;
13698;SDS011;6921;53.642;9.956;2023-02-13T09:26:54;21.37;;;13.13;;
13698;SDS011;6921;53.642;9.956;2023-02-13T09:28:58;23.77;;;14.13;;
13698;SDS011;6921;53.642;9.956;2023-02-13T09:31:03;25.47;;;16.30;;
13698;SDS011;6921;53.642;9.956;2023-02-13T09:33:08;18.17;;;12.93;;
13698;SDS011;6921;53.642;9.956;2023-02-13T09:35:12;23.97;;;14.03;;
13698;SDS011;6921;53.642;9.956;2023-02-13T09:37:16;23.33;;;14.63;;
13698;SDS011;6921;53.642;9.956;2023-02-13T09:39:20;20.90;;;13.23;;
13698;SDS011;6921;53.642;9.956;2023-02-13T09:41:24;23.80;;;14.47;;
13698;SDS011;6921;53.642;9.956;2023-02-13T09:43:30;18.40;;;12.17;;
13698;SDS011;6921;53.642;9.956;2023-02-13T09:45:36;16.40;;;12.03;;
13698;SDS011;6921;53.642;9.956;2023-02-13T09:47:40;21.03;;;13.60;;
13698;SDS011;6921;53.642;9.956;2023-02-13T09:49:45;18.03;;;12.70;;
13698;SDS011;6921;53.642;9.956;2023-02-13T09:51:52;17.77;;;12.50;;
13698;SDS011;6921;53.642;9.956;2023-02-13T09:53:59;20.53;;;12.67;;
13698;SDS011;6921;53.642;9.956;2023-02-13T09:56:07;16.37;;;11.27;;
13698;SDS011;6921;53.642;9.956;2023-02-13T09:58:17;23.03;;;14.10;;
13698;SDS011;6921;53.642;9.956;2023-02-13T10:00:28;20.23;;;13.23;;
13698;SDS011;6921;53.642;9.956;2023-02-13T10:03:00;20.77;;;14.03;;
13698;SDS011;6921;53.642;9.956;2023-02-13T10:05:18;19.60;;;12.63;;
13698;SDS011;6921;53.642;9.956;2023-02-13T10:07:38;19.20;;;12.37;;
13698;SDS011;6921;53.642;9.956;2023-02-13T10:09:52;18.10;;;11.97;;
13698;SDS011;6921;53.642;9.956;2023-02-13T10:12:10;16.50;;;11.67;;
13698;SDS011;6921;53.642;9.956;2023-02-13T10:14:22;20.60;;;13.47;;
13698;SDS011;6921;53.642;9.956;2023-02-13T10:16:27;20.33;;;13.00;;
13698;SDS011;6921;53.642;9.956;2023-02-13T10:18:38;19.50;;;13.07;;
13698;SDS011;6921;53.642;9.956;2023-02-13T10:20:47;18.07;;;13.00;;
13698;SDS011;6921;53.642;9.956;2023-02-13T10:22:55;18.00;;;12.40;;
13698;SDS011;6921;53.642;9.956;2023-02-13T10:25:03;18.93;;;12.87;;
13698;SDS011;6921;53.642;9.956;2023-02-13T10:27:17;21.43;;;13.47;;
13698;SDS011;6921;53.642;9.956;2023-02-13T10:29:23;17.50;;;11.40;;
13698;SDS011;6921;53.642;9.956;2023-02-13T10:31:50;15.60;;;11.20;;
13698;SDS011;6921;53.642;9.956;2023-02-13T10:33:59;17.40;;;12.40;;
13698;SDS011;6921;53.642;9.956;2023-02-13T10:36:06;21.60;;;11.87;;
13698;SDS011;6921;53.642;9.956;2023-02-13T10:38:16;20.63;;;12.40;;
13698;SDS011;6921;53.642;9.956;2023-02-13T10:40:20;18.87;;;12.60;;
13698;SDS011;6921;53.642;9.956;2023-02-13T10:42:29;18.27;;;12.80;;
13698;SDS011;6921;53.642;9.956;2023-02-13T10:44:43;17.90;;;12.03;;
13698;SDS011;6921;53.642;9.956;2023-02-13T10:46:54;15.87;;;10.80;;
13698;SDS011;6921;53.642;9.956;2023-02-13T10:49:09;18.97;;;12.17;;
13698;SDS011;6921;53.642;9.956;2023-02-13T10:51:18;16.00;;;12.00;;
13698;SDS011;6921;53.642;9.956;2023-02-13T10:53:30;16.33;;;12.07;;
13698;SDS011;6921;53.642;9.956;2023-02-13T10:58:24;19.43;;;13.23;;
13698;SDS011;6921;53.642;9.956;2023-02-13T11:00:34;17.53;;;12.47;;
13698;SDS011;6921;53.642;9.956;2023-02-13T11:02:43;19.50;;;12.80;;
13698;SDS011;6921;53.642;9.956;2023-02-13T11:04:47;19.13;;;12.53;;
13698;SDS011;6921;53.642;9.956;2023-02-13T11:06:54;18.37;;;12.80;;
13698;SDS011;6921;53.642;9.956;2023-02-13T11:08:58;18.13;;;12.13;;
13698;SDS011;6921;53.642;9.956;2023-02-13T11:11:02;22.13;;;13.50;;
13698;SDS011;6921;53.642;9.956;2023-02-13T11:13:13;16.83;;;11.90;;
13698;SDS011;6921;53.642;9.956;2023-02-13T11:15:21;19.40;;;12.47;;
13698;SDS011;6921;53.642;9.956;2023-02-13T11:17:27;18.47;;;12.50;;
13698;SDS011;6921;53.642;9.956;2023-02-13T11:19:33;22.63;;;13.47;;
13698;SDS011;6921;53.642;9.956;2023-02-13T11:21:36;20.67;;;12.83;;
13698;SDS011;6921;53.642;9.956;2023-02-13T11:23:41;20.43;;;12.37;;
13698;SDS011;6921;53.642;9.956;2023-02-13T11:25:52;14.97;;;11.07;;
13698;SDS011;6921;53.642;9.956;2023-02-13T11:28:05;16.47;;;11.93;;
13698;SDS011;6921;53.642;9.956;2023-02-13T11:30:29;19.47;;;13.70;;
13698;SDS011;6921;53.642;9.956;2023-02-13T11:32:35;19.83;;;13.17;;
13698;SDS011;6921;53.642;9.956;2023-02-13T11:34:38;20.13;;;13.57;;
13698;SDS011;6921;53.642;9.956;2023-02-13T11:36:41;22.77;;;14.43;;
13698;SDS011;6921;53.642;9.956;2023-02-13T11:38:51;21.40;;;14.60;;
13698;SDS011;6921;53.642;9.956;2023-02-13T11:41:04;20.53;;;13.50;;
13698;SDS011;6921;53.642;9.956;2023-02-13T11:43:13;26.07;;;14.43;;
13698;SDS011;6921;53.642;9.956;2023-02-13T11:45:20;22.17;;;12.77;;
13698;SDS011;6921;53.642;9.956;2023-02-13T11:47:32;17.73;;;11.93;;
13698;SDS011;6921;53.642;9.956;2023-02-13T11:49:43;23.53;;;14.53;;
13698;SDS011;6921;53.642;9.956;2023-02-13T11:51:49;21.80;;;14.27;;
13698;SDS011;6921;53.642;9.956;2023-02-13T11:53:53;22.00;;;13.90;;
13698;SDS011;6921;53.642;9.956;2023-02-13T11:56:03;27.53;;;15.00;;
13698;SDS011;6921;53.642;9.956;2023-02-13T11:58:21;21.57;;;13.27;;
13698;SDS011;6921;53.642;9.956;2023-02-13T12:00:27;19.27;;;13.77;;
13698;SDS011;6921;53.642;9.956;2023-02-13T12:02:44;23.00;;;14.13;;
13698;SDS011;6921;53.642;9.956;2023-02-13T12:04:50;21.57;;;14.73;;
13698;SDS011;6921;53.642;9.956;2023-02-13T12:06:57;22.33;;;14.90;;
13698;SDS011;6921;53.642;9.956;2023-02-13T12:09:02;19.17;;;13.90;;
13698;SDS011;6921;53.642;9.956;2023-02-13T12:11:08;23.20;;;13.70;;
13698;SDS011;6921;53.642;9.956;2023-02-13T12:13:20;23.67;;;15.53;;
13698;SDS011;6921;53.642;9.956;2023-02-13T12:15:31;22.77;;;14.17;;
13698;SDS011;6921;53.642;9.956;2023-02-13T12:17:36;20.27;;;13.13;;
13698;SDS011;6921;53.642;9.956;2023-02-13T12:19:41;22.10;;;13.37;;
13698;SDS011;6921;53.642;9.956;2023-02-13T12:21:59;26.77;;;16.57;;
13698;SDS011;6921;53.642;9.956;2023-02-13T12:24:13;23.13;;;15.87;;
13698;SDS011;6921;53.642;9.956;2023-02-13T12:26:28;25.00;;;16.70;;
13698;SDS011;6921;53.642;9.956;2023-02-13T12:28:39;26.97;;;16.87;;
13698;SDS011;6921;53.642;9.956;2023-02-13T12:30:58;25.73;;;16.27;;
13698;SDS011;6921;53.642;9.956;2023-02-13T12:33:24;27.23;;;17.27;;
13698;SDS011;6921;53.642;9.956;2023-02-13T12:35:37;26.07;;;15.93;;
13698;SDS011;6921;53.642;9.956;2023-02-13T12:37:52;26.37;;;16.40;;
13698;SDS011;6921;53.642;9.956;2023-02-13T12:40:08;22.60;;;15.10;;
13698;SDS011;6921;53.642;9.956;2023-02-13T12:42:28;24.30;;;15.90;;
13698;SDS011;6921;53.642;9.956;2023-02-13T12:44:50;24.43;;;15.60;;
13698;SDS011;6921;53.642;9.956;2023-02-13T12:47:04;25.73;;;16.73;;
13698;SDS011;6921;53.642;9.956;2023-02-13T12:49:20;26.43;;;16.30;;